Time;durP1;ratioP1;P1;durP2;ratioP2;P2;SDS_P1;SDS_P2;PMS_P1;PMS_P2;Temp;Humidity;BMP_temperature;BMP_pressure;BME280_temperature;BME280_humidity;BME280_pressure;Samples;Min_cycle;Max_cycle;Signal;HPM_P1;HPM_P2
2023/03/08 00:01:27;;;;;;;2.50;2.00;;;0.10;1.00;;;;;;4984135;28;20186;-49
2023/03/08 00:03:55;;;;;;;9.23;2.13;;;0.10;1.00;;;;;;4977146;28;20436;-49
2023/03/08 00:06:22;;;;;;;4.20;1.80;;;0.10;1.00;;;;;;4984016;28;20538;-49
2023/03/08 00:08:48;;;;;;;3.67;1.83;;;0.00;1.00;;;;;;4980742;28;20961;-54
2023/03/08 00:11:14;;;;;;;12.40;2.57;;;0.00;1.00;;;;;;4981041;28;20589;-50
2023/03/08 00:13:40;;;;;;;17.50;2.83;;;-0.10;1.00;;;;;;4981329;28;20800;-51
2023/03/08 00:16:08;;;;;;;3.23;1.77;;;-0.10;1.00;;;;;;4981237;28;20474;-49
2023/03/08 00:18:34;;;;;;;2.73;1.90;;;-0.10;2.20;;;;;;4979941;28;20205;-49
2023/03/08 00:21:07;;;;;;;6.70;2.30;;;-0.10;1.00;;;;;;4979080;28;20810;-50
2023/03/08 00:23:32;;;;;;;5.80;2.00;;;-0.20;12.70;;;;;;4978416;28;20451;-50
2023/03/08 00:25:58;;;;;;;9.67;2.40;;;-0.20;57.60;;;;;;4979941;28;20480;-49
2023/03/08 00:28:24;;;;;;;2.00;1.90;;;-0.20;74.10;;;;;;4984092;28;20284;-49
2023/03/08 00:31:06;;;;;;;7.70;2.30;;;-0.20;99.90;;;;;;4978939;28;20189;-49
2023/03/08 00:33:32;;;;;;;2.17;1.93;;;-0.10;99.90;;;;;;4982785;28;20199;-49
2023/03/08 00:36:00;;;;;;;4.77;2.30;;;-0.20;95.70;;;;;;4985023;28;20482;-49
2023/03/08 00:38:29;;;;;;;6.63;2.60;;;-0.20;99.90;;;;;;4987022;28;20787;-49
2023/03/08 00:40:55;;;;;;;3.60;2.37;;;-0.20;99.90;;;;;;4977623;28;20446;-50
2023/03/08 00:43:21;;;;;;;4.23;2.20;;;-0.20;99.90;;;;;;4977967;28;20861;-49
2023/03/08 00:45:46;;;;;;;3.57;2.60;;;-0.20;99.90;;;;;;4980629;28;20215;-49
2023/03/08 00:48:12;;;;;;;3.33;2.20;;;-0.30;1.00;;;;;;4978739;28;20197;-49
2023/03/08 00:50:38;;;;;;;4.17;2.30;;;-0.30;1.00;;;;;;4977940;28;20260;-49
2023/03/08 00:53:03;;;;;;;8.00;2.60;;;-0.40;1.00;;;;;;4981215;28;20244;-49
2023/03/08 00:55:29;;;;;;;5.27;2.30;;;-0.40;32.40;;;;;;4978469;28;20197;-50
2023/03/08 00:57:54;;;;;;;5.67;2.73;;;-0.40;99.90;;;;;;4982596;28;20191;-49
2023/03/08 01:00:20;;;;;;;5.63;2.17;;;-0.40;99.90;;;;;;4983281;28;20692;-49
2023/03/08 01:02:46;;;;;;;4.87;2.87;;;-0.40;99.90;;;;;;4978327;28;20261;-49
2023/03/08 01:05:12;;;;;;;7.40;2.80;;;-0.40;99.90;;;;;;4977599;28;20209;-50
2023/03/08 01:07:38;;;;;;;3.27;2.60;;;-0.50;99.90;;;;;;4979413;28;20244;-49
2023/03/08 01:10:04;;;;;;;4.03;2.90;;;-0.50;99.90;;;;;;4978279;28;20448;-49
2023/03/08 01:12:34;;;;;;;3.00;2.43;;;-0.50;1.00;;;;;;4979996;28;20243;-49
2023/03/08 01:15:00;;;;;;;5.47;2.90;;;-0.60;1.00;;;;;;4976561;28;20511;-49
2023/03/08 01:17:25;;;;;;;10.63;3.20;;;-0.60;1.00;;;;;;4978242;28;20928;-49
2023/03/08 01:19:51;;;;;;;9.03;3.10;;;-0.60;99.90;;;;;;4981047;28;20638;-51
2023/03/08 01:22:16;;;;;;;4.60;2.73;;;-0.70;1.00;;;;;;4976598;28;20220;-49
2023/03/08 01:24:47;;;;;;;4.77;3.23;;;-0.70;1.00;;;;;;4981036;28;20186;-51
2023/03/08 01:27:13;;;;;;;6.63;3.10;;;-0.80;15.80;;;;;;4981679;28;20286;-49
2023/03/08 01:29:39;;;;;;;5.70;2.90;;;-0.80;99.90;;;;;;4980134;28;20438;-49
2023/03/08 01:32:05;;;;;;;11.50;3.20;;;-0.80;1.00;;;;;;4977603;28;20454;-49
2023/03/08 01:34:31;;;;;;;4.73;3.07;;;-0.80;99.90;;;;;;4979734;28;20818;-51
2023/03/08 01:36:56;;;;;;;4.97;3.00;;;-0.90;99.90;;;;;;4976522;28;20448;-49
2023/03/08 01:39:22;;;;;;;3.23;2.73;;;-0.90;1.00;;;;;;4977654;28;20178;-49
2023/03/08 01:41:48;;;;;;;3.77;2.87;;;-0.90;1.00;;;;;;4977673;28;20197;-49
2023/03/08 01:44:18;;;;;;;8.90;3.63;;;-0.90;99.90;;;;;;4977012;28;20207;-49
2023/03/08 01:46:43;;;;;;;4.10;3.70;;;-0.90;1.00;;;;;;4976660;28;20221;-49
2023/03/08 01:49:25;;;;;;;4.57;3.40;;;-0.90;99.90;;;;;;4981843;28;20970;-49
2023/03/08 01:51:54;;;;;;;6.30;3.03;;;-0.90;99.90;;;;;;4976073;28;20742;-48
2023/03/08 01:54:27;;;;;;;8.03;3.70;;;-1.00;73.90;;;;;;4979697;28;20440;-50
2023/03/08 01:56:58;;;;;;;10.43;3.70;;;-1.00;99.90;;;;;;4978595;28;20457;-49
2023/03/08 01:59:25;;;;;;;7.77;4.27;;;-1.00;1.00;;;;;;4977972;28;20468;-50
2023/03/08 02:01:51;;;;;;;7.83;4.67;;;-1.00;99.90;;;;;;4982264;28;20445;-48
2023/03/08 02:04:17;;;;;;;9.03;4.47;;;-0.90;99.90;;;;;;4976842;28;20447;-48
2023/03/08 02:06:43;;;;;;;9.23;4.63;;;-0.90;1.00;;;;;;4979837;28;20479;-49
2023/03/08 02:09:09;;;;;;;4.57;3.53;;;-0.90;99.90;;;;;;4975683;28;20293;-49
2023/03/08 02:11:38;;;;;;;9.50;4.60;;;-0.90;1.00;;;;;;4978761;28;20554;-49
2023/03/08 02:14:04;;;;;;;8.20;4.50;;;-0.80;99.90;;;;;;4978393;28;20526;-48
2023/03/08 02:16:30;;;;;;;7.13;5.10;;;-0.70;1.00;;;;;;4980279;28;20444;-49
2023/03/08 02:19:08;;;;;;;6.97;5.30;;;-0.70;99.90;;;;;;4978329;28;20181;-49
2023/03/08 02:21:33;;;;;;;10.93;4.07;;;-0.60;99.90;;;;;;4976545;28;20196;-49
2023/03/08 02:24:06;;;;;;;11.03;4.70;;;-0.60;1.00;;;;;;4979131;28;21271;-48
2023/03/08 02:26:34;;;;;;;7.87;4.80;;;-0.60;1.00;;;;;;4979517;28;20232;-49
2023/03/08 02:29:00;;;;;;;7.93;4.83;;;-0.60;99.90;;;;;;4981887;28;20448;-48
2023/03/08 02:31:25;;;;;;;7.67;4.40;;;-0.60;1.00;;;;;;4983350;28;20444;-49
2023/03/08 02:33:51;;;;;;;6.30;5.00;;;-0.60;1.00;;;;;;4977251;28;20192;-49
2023/03/08 02:36:17;;;;;;;8.20;4.30;;;-0.60;1.00;;;;;;4977834;28;20316;-49
2023/03/08 02:38:43;;;;;;;10.40;5.03;;;-0.60;99.90;;;;;;4977949;28;20698;-49
2023/03/08 02:41:09;;;;;;;7.80;4.27;;;-0.50;99.90;;;;;;4981220;28;20522;-49
2023/03/08 02:43:34;;;;;;;7.27;4.50;;;-0.50;1.00;;;;;;4979997;28;20715;-48
2023/03/08 02:46:00;;;;;;;9.63;4.70;;;-0.50;9.20;;;;;;4983392;28;20324;-49
2023/03/08 02:48:26;;;;;;;5.60;4.83;;;-0.40;99.90;;;;;;4980651;28;20668;-49
2023/03/08 02:50:51;;;;;;;6.80;5.23;;;-0.40;99.90;;;;;;4979107;28;20276;-49
2023/03/08 02:53:17;;;;;;;9.90;5.30;;;-0.40;1.00;;;;;;4977551;28;20201;-50
2023/03/08 02:55:42;;;;;;;9.13;6.10;;;-0.40;1.00;;;;;;4980225;28;20228;-49
2023/03/08 02:58:09;;;;;;;8.10;5.43;;;-0.30;1.00;;;;;;4977827;28;20196;-49
2023/03/08 03:00:35;;;;;;;9.13;5.50;;;-0.30;99.90;;;;;;4978181;28;20211;-50
2023/03/08 03:03:01;;;;;;;11.13;5.30;;;-0.30;1.00;;;;;;4980584;28;20877;-49
2023/03/08 03:05:27;;;;;;;6.40;5.23;;;-0.30;99.90;;;;;;4977011;28;20478;-49
2023/03/08 03:07:54;;;;;;;8.77;5.23;;;-0.20;99.90;;;;;;4978838;28;20641;-49
2023/03/08 03:10:20;;;;;;;8.80;5.70;;;-0.20;1.00;;;;;;4979061;28;20296;-49
2023/03/08 03:12:45;;;;;;;10.23;6.20;;;-0.20;1.00;;;;;;4976356;28;20886;-50
2023/03/08 03:15:11;;;;;;;9.27;6.83;;;-0.30;1.00;;;;;;4977487;28;20451;-49
2023/03/08 03:17:37;;;;;;;12.30;6.77;;;-0.20;99.90;;;;;;4981877;28;20196;-50
2023/03/08 03:20:08;;;;;;;9.77;6.70;;;-0.30;99.90;;;;;;4979437;28;20433;-49
2023/03/08 03:22:34;;;;;;;10.20;6.43;;;-0.20;1.00;;;;;;4979490;28;20193;-49
2023/03/08 03:25:00;;;;;;;11.83;7.13;;;-0.20;46.20;;;;;;4982096;28;20444;-48
2023/03/08 03:27:25;;;;;;;8.80;6.63;;;-0.10;1.00;;;;;;4980196;28;20846;-48
2023/03/08 03:29:51;;;;;;;10.17;6.73;;;-0.20;1.00;;;;;;4981989;28;20196;-50
2023/03/08 03:32:17;;;;;;;10.17;7.20;;;-0.10;1.00;;;;;;4988662;28;20208;-49
2023/03/08 03:34:43;;;;;;;10.70;6.73;;;-0.10;1.00;;;;;;4980239;28;20696;-50
2023/03/08 03:37:08;;;;;;;11.00;6.10;;;-0.10;99.90;;;;;;4982185;28;20193;-49
2023/03/08 03:39:38;;;;;;;8.40;6.20;;;-0.10;99.90;;;;;;4978938;28;20815;-49
2023/03/08 03:42:05;;;;;;;11.37;6.50;;;-0.10;99.90;;;;;;4979625;28;20560;-49
2023/03/08 03:44:31;;;;;;;13.13;6.43;;;-0.10;99.90;;;;;;4978220;28;20931;-49
2023/03/08 03:46:56;;;;;;;9.10;5.50;;;-0.10;99.90;;;;;;4979219;28;20484;-49
2023/03/08 03:49:22;;;;;;;7.00;5.87;;;-0.10;99.90;;;;;;4983164;28;20189;-51
2023/03/08 03:51:48;;;;;;;9.40;6.80;;;-0.10;99.90;;;;;;4977919;28;20200;-50
2023/03/08 03:54:13;;;;;;;11.60;5.80;;;-0.10;12.20;;;;;;4984219;28;20200;-49
2023/03/08 03:56:39;;;;;;;9.23;6.23;;;0.00;93.20;;;;;;4986549;28;20595;-49
2023/03/08 03:59:04;;;;;;;9.17;6.73;;;0.00;45.20;;;;;;4981802;28;20191;-50
2023/03/08 04:01:31;;;;;;;8.00;6.27;;;0.00;1.00;;;;;;4980918;28;20211;-49
2023/03/08 04:03:57;;;;;;;8.90;6.00;;;-0.10;99.90;;;;;;4990157;28;20184;-49
2023/03/08 04:06:24;;;;;;;10.37;6.50;;;0.00;99.90;;;;;;4979420;28;20479;-49
2023/03/08 04:08:55;;;;;;;8.23;6.10;;;0.00;1.00;;;;;;4979678;28;20448;-50
2023/03/08 04:11:24;;;;;;;12.60;6.43;;;0.00;1.00;;;;;;4982823;28;20487;-50
2023/03/08 04:13:50;;;;;;;10.10;7.00;;;0.00;99.90;;;;;;4977939;28;21566;-51
2023/03/08 04:16:24;;;;;;;9.40;6.73;;;0.00;99.90;;;;;;4982055;28;20931;-49
2023/03/08 04:18:55;;;;;;;7.40;5.87;;;0.00;99.90;;;;;;4979153;28;20565;-49
2023/03/08 04:21:21;;;;;;;8.93;6.20;;;0.00;99.90;;;;;;4980227;28;20524;-49
2023/03/08 04:23:47;;;;;;;11.50;6.37;;;0.00;1.00;;;;;;4978034;28;20873;-50
2023/03/08 04:26:12;;;;;;;10.17;6.53;;;0.00;1.00;;;;;;4981838;28;20534;-50
2023/03/08 04:28:39;;;;;;;8.00;6.33;;;0.10;88.20;;;;;;4978291;28;20196;-49
2023/03/08 04:31:20;;;;;;;8.80;6.47;;;0.10;99.90;;;;;;4977131;28;20200;-49
2023/03/08 04:33:46;;;;;;;10.60;6.00;;;0.20;1.00;;;;;;4982350;28;20455;-49
2023/03/08 04:36:14;;;;;;;9.70;6.17;;;0.20;99.90;;;;;;4979550;28;20487;-49
2023/03/08 04:38:40;;;;;;;13.67;6.00;;;0.20;1.00;;;;;;4982942;28;20539;-53
2023/03/08 04:41:11;;;;;;;9.43;5.20;;;0.20;99.90;;;;;;4981328;28;20531;-49
2023/03/08 04:43:47;;;;;;;8.10;6.30;;;0.20;99.90;;;;;;4981754;28;20528;-49
2023/03/08 04:46:13;;;;;;;6.77;5.87;;;0.20;96.00;;;;;;4977689;28;20465;-49
2023/03/08 04:48:39;;;;;;;7.40;5.67;;;0.30;1.00;;;;;;4978922;28;20444;-49
2023/03/08 04:51:06;;;;;;;8.70;5.40;;;0.30;1.00;;;;;;4980556;28;20436;-49
2023/03/08 04:53:32;;;;;;;9.30;5.33;;;0.20;99.90;;;;;;4977228;28;20227;-50
2023/03/08 04:55:59;;;;;;;9.50;5.97;;;0.30;1.00;;;;;;4978920;28;20444;-49
2023/03/08 04:58:26;;;;;;;10.80;4.97;;;0.20;1.00;;;;;;4978768;28;20445;-49
2023/03/08 05:00:51;;;;;;;7.30;5.33;;;0.20;99.90;;;;;;4978985;28;21010;-50
2023/03/08 05:03:18;;;;;;;12.20;4.97;;;0.20;1.00;;;;;;4977592;28;20448;-49
2023/03/08 05:05:45;;;;;;;7.13;5.17;;;0.20;99.90;;;;;;4988523;28;20232;-50
2023/03/08 05:08:11;;;;;;;7.70;5.57;;;0.20;99.90;;;;;;4979631;28;20441;-51
2023/03/08 05:10:37;;;;;;;7.43;5.67;;;0.20;1.00;;;;;;4980667;28;20463;-50
2023/03/08 05:13:03;;;;;;;7.13;5.07;;;0.20;1.00;;;;;;4979250;28;20634;-50
2023/03/08 05:15:28;;;;;;;10.27;5.40;;;0.20;69.10;;;;;;4980681;28;20193;-49
2023/03/08 05:17:54;;;;;;;14.23;5.60;;;0.30;1.00;;;;;;4977483;28;20190;-50
2023/03/08 05:20:19;;;;;;;9.63;5.43;;;0.30;99.90;;;;;;4976069;28;20189;-50
2023/03/08 05:22:45;;;;;;;6.80;5.17;;;0.30;99.90;;;;;;4977319;28;20807;-49
2023/03/08 05:25:11;;;;;;;5.57;5.00;;;0.30;74.80;;;;;;4980416;28;20188;-50
2023/03/08 05:27:36;;;;;;;8.47;5.37;;;0.30;1.00;;;;;;4978372;28;20952;-49
2023/03/08 05:30:05;;;;;;;6.43;5.20;;;0.30;1.00;;;;;;4980543;28;20189;-49
2023/03/08 05:32:31;;;;;;;11.30;6.40;;;0.30;99.90;;;;;;4977436;28;20253;-49
2023/03/08 05:34:56;;;;;;;11.17;5.00;;;0.30;99.90;;;;;;4978210;28;21039;-49
2023/03/08 05:37:24;;;;;;;7.80;6.30;;;0.30;99.90;;;;;;4977760;28;20643;-49
2023/03/08 05:39:50;;;;;;;8.23;4.80;;;0.30;99.90;;;;;;4977582;28;20239;-50
2023/03/08 05:42:16;;;;;;;8.40;5.53;;;0.30;99.90;;;;;;4976391;28;20448;-49
2023/03/08 05:44:42;;;;;;;8.33;5.50;;;0.30;99.90;;;;;;4982531;28;20510;-50
2023/03/08 05:47:07;;;;;;;10.93;6.77;;;0.40;99.90;;;;;;4976703;28;20232;-49
2023/03/08 05:49:33;;;;;;;7.87;6.70;;;0.40;23.30;;;;;;4975312;28;20193;-50
2023/03/08 05:51:59;;;;;;;15.23;7.80;;;0.40;1.00;;;;;;4982448;28;21246;-49
2023/03/08 05:54:24;;;;;;;15.80;9.27;;;0.40;1.00;;;;;;4977823;28;20197;-50
2023/03/08 05:56:50;;;;;;;16.63;9.20;;;0.40;19.50;;;;;;4981876;28;20300;-49
2023/03/08 05:59:15;;;;;;;16.93;10.00;;;0.40;1.00;;;;;;4981241;28;20796;-49
2023/03/08 06:01:41;;;;;;;15.13;9.20;;;0.40;1.00;;;;;;4985062;28;20185;-49
2023/03/08 06:04:07;;;;;;;17.90;9.77;;;0.40;1.00;;;;;;4980284;28;20271;-49
2023/03/08 06:06:32;;;;;;;20.73;9.63;;;0.40;1.00;;;;;;4975724;28;20220;-50
2023/03/08 06:08:58;;;;;;;15.23;10.47;;;0.30;1.00;;;;;;4977198;28;20229;-49
2023/03/08 06:11:24;;;;;;;19.27;10.30;;;0.30;1.00;;;;;;4983395;28;20191;-48
2023/03/08 06:13:49;;;;;;;19.80;10.70;;;0.20;1.00;;;;;;4977194;28;20185;-49
2023/03/08 06:16:15;;;;;;;21.23;11.40;;;0.20;99.90;;;;;;4975292;28;20439;-49
2023/03/08 06:18:41;;;;;;;23.10;11.27;;;0.20;99.90;;;;;;4976947;28;20194;-50
2023/03/08 06:21:12;;;;;;;19.53;11.07;;;0.30;99.90;;;;;;4976877;28;20449;-50
2023/03/08 06:23:38;;;;;;;20.10;12.03;;;0.40;99.90;;;;;;4982802;28;20463;-50
2023/03/08 06:26:05;;;;;;;22.23;11.53;;;0.40;93.30;;;;;;4982616;28;20907;-49
2023/03/08 06:28:31;;;;;;;30.57;11.80;;;0.40;1.00;;;;;;4977901;28;20439;-50
2023/03/08 06:30:57;;;;;;;19.20;10.70;;;0.40;1.00;;;;;;4979427;28;20523;-50
2023/03/08 06:33:25;;;;;;;19.03;10.63;;;0.40;1.00;;;;;;4976641;28;20919;-50
2023/03/08 06:36:11;;;;;;;21.10;11.60;;;0.40;1.00;;;;;;4980988;28;20229;-50
2023/03/08 06:38:38;;;;;;;17.73;10.70;;;0.50;99.90;;;;;;4976542;28;20444;-50
2023/03/08 06:41:05;;;;;;;21.67;11.37;;;0.40;99.90;;;;;;4975871;28;20466;-50
2023/03/08 06:43:31;;;;;;;21.03;10.50;;;0.50;34.80;;;;;;4978951;28;20454;-51
2023/03/08 06:45:57;;;;;;;21.10;10.50;;;0.50;1.00;;;;;;4976099;28;20853;-50
2023/03/08 06:48:22;;;;;;;23.63;10.40;;;0.50;1.00;;;;;;4975969;28;20224;-50
2023/03/08 06:50:48;;;;;;;15.70;10.50;;;0.40;1.00;;;;;;4975730;28;20221;-50
2023/03/08 06:53:14;;;;;;;19.60;10.57;;;0.40;1.00;;;;;;4975321;28;20194;-50
2023/03/08 06:55:40;;;;;;;20.60;11.67;;;0.40;1.00;;;;;;4974867;28;20449;-51
2023/03/08 06:58:07;;;;;;;20.57;10.57;;;0.50;1.00;;;;;;4975967;28;20197;-50
2023/03/08 07:00:33;;;;;;;21.00;11.10;;;0.50;1.00;;;;;;4980465;28;20452;-50
2023/03/08 07:02:58;;;;;;;24.27;11.77;;;0.50;1.00;;;;;;4981480;28;20518;-52
2023/03/08 07:05:24;;;;;;;23.53;11.70;;;0.50;1.00;;;;;;4978341;28;20578;-50
2023/03/08 07:07:50;;;;;;;22.50;11.23;;;0.60;6.40;;;;;;4985220;28;20215;-50
2023/03/08 07:10:19;;;;;;;24.67;11.77;;;0.50;1.00;;;;;;4980585;28;20180;-50
2023/03/08 07:12:47;;;;;;;22.20;11.60;;;0.60;1.00;;;;;;4986392;28;20486;-50
2023/03/08 07:15:14;;;;;;;24.97;11.77;;;0.60;1.00;;;;;;4982372;28;20448;-49
2023/03/08 07:17:43;;;;;;;19.77;10.77;;;0.60;1.00;;;;;;4978825;28;20972;-50
2023/03/08 07:20:10;;;;;;;26.57;11.97;;;0.70;1.00;;;;;;4977791;28;20464;-49
2023/03/08 07:22:36;;;;;;;24.13;12.70;;;0.70;99.90;;;;;;4978898;28;20542;-49
2023/03/08 07:25:02;;;;;;;38.07;11.97;;;0.70;99.90;;;;;;4977303;28;20872;-49
2023/03/08 07:27:27;;;;;;;24.83;12.70;;;0.70;99.90;;;;;;4976632;28;20190;-50
2023/03/08 07:29:53;;;;;;;28.77;13.23;;;0.80;99.90;;;;;;4975050;28;20216;-50
2023/03/08 07:32:18;;;;;;;45.20;13.60;;;0.80;99.90;;;;;;4975112;28;20606;-48
2023/03/08 07:34:44;;;;;;;34.57;14.93;;;0.80;99.90;;;;;;4974538;28;20435;-49
2023/03/08 07:37:14;;;;;;;29.77;13.90;;;0.80;99.90;;;;;;4978158;28;20192;-50
2023/03/08 07:39:41;;;;;;;29.20;13.30;;;0.80;99.90;;;;;;4977344;28;20267;-51
2023/03/08 07:42:07;;;;;;;23.33;10.90;;;1.00;99.90;;;;;;4977219;28;20490;-51
2023/03/08 07:44:33;;;;;;;23.70;12.10;;;1.10;1.00;;;;;;4975146;28;21006;-50
2023/03/08 07:46:58;;;;;;;23.33;13.20;;;1.20;1.00;;;;;;4979161;28;20480;-50
2023/03/08 07:49:24;;;;;;;23.43;11.90;;;1.20;1.00;;;;;;4982083;28;20588;-50
2023/03/08 07:51:52;;;;;;;27.60;13.10;;;1.10;1.00;;;;;;4978717;28;20177;-50
2023/03/08 07:54:17;;;;;;;24.93;12.70;;;1.20;1.00;;;;;;4979029;28;20276;-50
2023/03/08 07:56:43;;;;;;;22.97;12.60;;;1.20;1.00;;;;;;4978707;28;20523;-50
2023/03/08 07:59:09;;;;;;;31.83;14.10;;;1.20;1.00;;;;;;4980300;28;20456;-52
2023/03/08 08:01:34;;;;;;;29.00;14.30;;;1.20;1.00;;;;;;4981379;28;20189;-50
2023/03/08 08:04:00;;;;;;;29.87;14.27;;;1.30;1.00;;;;;;4982780;28;20227;-49
2023/03/08 08:06:27;;;;;;;28.10;14.13;;;1.30;1.00;;;;;;4979359;28;20213;-50
2023/03/08 08:08:54;;;;;;;29.93;13.83;;;1.30;99.90;;;;;;4978959;28;20185;-49
2023/03/08 08:11:20;;;;;;;35.03;15.27;;;1.20;99.90;;;;;;4978416;28;20439;-50
2023/03/08 08:13:46;;;;;;;31.67;13.53;;;1.20;1.00;;;;;;4978951;28;20959;-50
2023/03/08 08:16:13;;;;;;;37.53;16.20;;;1.20;1.00;;;;;;4977886;28;20188;-50
2023/03/08 08:18:39;;;;;;;33.63;15.27;;;1.20;1.00;;;;;;4982929;28;20925;-50
2023/03/08 08:21:07;;;;;;;39.60;15.20;;;1.30;1.00;;;;;;4982032;28;20443;-49
2023/03/08 08:23:34;;;;;;;35.37;16.00;;;1.40;1.00;;;;;;4978446;28;20190;-49
2023/03/08 08:26:04;;;;;;;39.63;15.53;;;1.40;1.00;;;;;;4982161;28;20553;-50
2023/03/08 08:28:30;;;;;;;28.73;14.10;;;1.50;99.90;;;;;;4984298;28;21022;-50
2023/03/08 08:31:02;;;;;;;35.43;14.73;;;1.50;99.90;;;;;;4983507;28;20439;-49
2023/03/08 08:33:31;;;;;;;26.60;12.30;;;1.40;99.90;;;;;;4982472;28;20452;-49
2023/03/08 08:35:56;;;;;;;28.00;13.60;;;1.40;99.90;;;;;;4980526;28;20495;-49
2023/03/08 08:38:22;;;;;;;24.87;12.70;;;1.50;99.90;;;;;;4986385;28;20447;-50
2023/03/08 08:40:48;;;;;;;27.00;11.90;;;1.70;99.90;;;;;;4978083;28;20329;-50
2023/03/08 08:43:14;;;;;;;30.50;12.73;;;1.80;99.90;;;;;;4981791;28;20523;-50
2023/03/08 08:45:44;;;;;;;26.83;12.80;;;1.90;99.90;;;;;;4977247;28;20359;-50
2023/03/08 08:48:10;;;;;;;25.43;12.50;;;2.00;99.90;;;;;;4978520;28;20463;-51
2023/03/08 08:50:37;;;;;;;28.17;13.80;;;2.00;99.90;;;;;;4978373;28;20441;-50
2023/03/08 08:53:03;;;;;;;26.23;12.80;;;2.10;99.90;;;;;;4977759;28;20528;-49
2023/03/08 08:55:29;;;;;;;27.03;12.50;;;2.00;99.90;;;;;;4977939;28;21700;-50
2023/03/08 08:57:55;;;;;;;24.00;13.00;;;1.90;99.90;;;;;;4977760;28;20449;-50
2023/03/08 09:00:20;;;;;;;27.00;12.30;;;1.70;99.90;;;;;;4983290;28;20193;-49
2023/03/08 09:02:46;;;;;;;25.10;13.40;;;1.60;99.90;;;;;;4983619;28;20194;-49
2023/03/08 09:05:12;;;;;;;29.37;13.67;;;1.60;99.90;;;;;;4988596;28;20217;-50
2023/03/08 09:07:37;;;;;;;30.03;13.50;;;1.60;99.90;;;;;;4980127;28;20198;-50
2023/03/08 09:10:03;;;;;;;25.27;12.03;;;1.80;99.90;;;;;;4983252;28;20268;-50
2023/03/08 09:12:29;;;;;;;23.77;12.00;;;1.80;99.90;;;;;;4977245;28;20198;-49
2023/03/08 09:14:54;;;;;;;31.00;14.63;;;1.70;99.90;;;;;;4976968;28;20440;-49
2023/03/08 09:17:20;;;;;;;23.73;12.13;;;1.70;99.90;;;;;;4979973;28;20200;-49
2023/03/08 09:19:46;;;;;;;26.43;11.80;;;1.70;99.90;;;;;;4977907;28;20189;-50
2023/03/08 09:22:12;;;;;;;25.00;11.47;;;1.60;99.90;;;;;;4977710;28;20221;-50
2023/03/08 09:24:37;;;;;;;30.50;12.47;;;1.60;99.90;;;;;;4981041;28;21064;-49
2023/03/08 09:27:06;;;;;;;26.60;13.70;;;1.60;99.90;;;;;;4977738;28;20221;-49
2023/03/08 09:29:33;;;;;;;24.50;12.03;;;1.60;99.90;;;;;;4976722;28;20189;-50
2023/03/08 09:31:59;;;;;;;28.93;12.07;;;1.50;99.90;;;;;;4976821;28;20435;-50
2023/03/08 09:34:25;;;;;;;25.17;11.23;;;1.60;99.90;;;;;;4980040;28;20788;-50
2023/03/08 09:36:51;;;;;;;22.30;10.80;;;1.60;99.90;;;;;;4978067;28;20804;-50
2023/03/08 09:39:16;;;;;;;27.03;11.97;;;1.70;99.90;;;;;;4976500;28;20441;-50
2023/03/08 09:42:01;;;;;;;29.70;12.30;;;1.80;99.90;;;;;;4976989;28;20209;-50
2023/03/08 09:45:03;;;;;;;25.50;12.27;;;2.00;99.90;;;;;;4976630;28;20193;-49
2023/03/08 09:47:41;;;;;;;34.73;13.80;;;2.00;91.20;;;;;;4977375;28;20632;-50
2023/03/08 09:50:33;;;;;;;26.33;11.03;;;1.90;90.90;;;;;;4978295;28;20443;-50
2023/03/08 09:53:13;;;;;;;32.53;13.30;;;1.90;99.90;;;;;;4976738;28;20944;-49
2023/03/08 09:55:45;;;;;;;26.20;13.00;;;1.90;99.90;;;;;;4976815;28;20475;-49
2023/03/08 09:58:36;;;;;;;25.17;12.83;;;1.90;99.90;;;;;;4981977;28;20504;-50
2023/03/08 10:01:21;;;;;;;32.60;12.40;;;1.90;99.90;;;;;;4979696;28;20440;-49
2023/03/08 10:04:17;;;;;;;27.27;13.10;;;2.00;99.90;;;;;;4976658;28;20439;-49
2023/03/08 10:07:04;;;;;;;24.57;12.40;;;2.10;99.90;;;;;;4979159;28;20543;-51
2023/03/08 10:09:35;;;;;;;31.07;12.80;;;2.10;94.70;;;;;;4976748;28;20453;-50
2023/03/08 10:12:38;;;;;;;29.20;12.70;;;2.20;83.50;;;;;;4977133;28;20451;-49
2023/03/08 10:15:20;;;;;;;36.27;12.80;;;2.20;93.30;;;;;;4983456;28;20461;-49
2023/03/08 10:17:52;;;;;;;32.23;11.70;;;2.30;78.80;;;;;;4981931;28;20449;-50
2023/03/08 10:20:26;;;;;;;21.53;10.20;;;2.40;90.90;;;;;;4981908;28;20583;-50
2023/03/08 10:23:01;;;;;;;22.40;11.20;;;2.50;68.60;;;;;;4979132;28;20953;-51
2023/03/08 10:25:32;;;;;;;19.57;10.40;;;2.50;52.40;;;;;;4981730;28;20612;-50
2023/03/08 10:28:00;;;;;;;24.80;11.40;;;2.60;11.50;;;;;;4977750;28;20437;-50
2023/03/08 10:30:36;;;;;;;24.27;11.87;;;2.60;1.00;;;;;;4976294;28;20440;-50
2023/03/08 10:33:06;;;;;;;23.47;11.90;;;2.60;1.00;;;;;;4974870;28;20463;-50
2023/03/08 10:35:33;;;;;;;24.60;11.17;;;2.70;1.00;;;;;;4975918;28;20491;-50
2023/03/08 10:37:59;;;;;;;22.30;9.57;;;2.80;1.00;;;;;;4975297;28;20960;-50
2023/03/08 10:40:25;;;;;;;16.37;8.70;;;3.00;1.00;;;;;;4975981;28;20476;-50
2023/03/08 10:42:58;;;;;;;18.23;8.90;;;3.20;1.00;;;;;;4976056;28;20529;-50
2023/03/08 10:45:24;;;;;;;17.63;8.53;;;3.30;1.00;;;;;;4975756;28;20548;-50
2023/03/08 10:48:01;;;;;;;15.53;9.13;;;3.40;1.00;;;;;;4975770;28;20449;-50
2023/03/08 10:50:29;;;;;;;13.97;7.37;;;3.60;1.00;;;;;;4976387;28;20197;-50
2023/03/08 10:53:17;;;;;;;17.10;9.10;;;3.80;1.00;;;;;;4978294;28;20939;-50
2023/03/08 10:55:45;;;;;;;17.30;7.07;;;3.80;1.00;;;;;;4977068;28;20490;-50
2023/03/08 10:58:26;;;;;;;15.40;6.87;;;3.80;1.00;;;;;;4980067;28;20975;-50
2023/03/08 11:00:55;;;;;;;13.67;7.40;;;3.70;1.00;;;;;;4975964;28;20452;-50
2023/03/08 11:03:23;;;;;;;14.63;7.63;;;3.60;1.00;;;;;;4974691;28;20444;-50
2023/03/08 11:05:54;;;;;;;17.10;9.50;;;3.60;1.00;;;;;;4979852;28;20485;-50
2023/03/08 11:08:42;;;;;;;16.57;8.60;;;3.50;1.00;;;;;;4975656;28;20480;-50
2023/03/08 11:11:12;;;;;;;23.30;9.97;;;3.50;1.00;;;;;;4971528;28;20459;-50
2023/03/08 11:13:45;;;;;;;18.50;8.30;;;3.50;1.00;;;;;;4975445;28;20514;-50
2023/03/08 11:16:27;;;;;;;14.87;7.47;;;3.50;1.00;;;;;;4975440;28;20443;-50
2023/03/08 11:18:57;;;;;;;16.80;8.40;;;3.50;1.00;;;;;;4976100;28;20446;-50
2023/03/08 11:21:47;;;;;;;14.63;7.73;;;3.60;1.00;;;;;;4976073;28;20446;-50
2023/03/08 11:24:40;;;;;;;11.80;7.60;;;4.30;1.00;;;;;;4977675;28;20449;-50
2023/03/08 11:27:22;;;;;;;12.80;7.80;;;4.80;1.00;;;;;;4975815;28;20612;-50
2023/03/08 11:30:01;;;;;;;18.20;7.93;;;5.10;1.00;;;;;;4975055;28;20449;-50
2023/03/08 11:32:56;;;;;;;12.77;7.87;;;5.50;1.00;;;;;;4981275;28;20445;-50
2023/03/08 11:35:33;;;;;;;18.20;8.13;;;6.00;1.00;;;;;;4980646;28;20912;-50
2023/03/08 11:38:24;;;;;;;10.97;6.70;;;6.20;1.00;;;;;;4976647;28;20450;-50
2023/03/08 11:41:13;;;;;;;10.97;6.90;;;6.50;1.00;;;;;;4978842;28;20482;-50
2023/03/08 11:44:18;;;;;;;11.80;6.80;;;7.30;1.00;;;;;;4979519;28;20456;-50
2023/03/08 11:46:52;;;;;;;10.10;6.13;;;8.40;1.00;;;;;;4979454;28;20614;-50
2023/03/08 11:49:36;;;;;;;19.67;6.63;;;8.30;1.00;;;;;;4978762;28;20576;-50
2023/03/08 11:52:27;;;;;;;8.07;5.10;;;8.20;1.00;;;;;;4979485;28;20772;-50
2023/03/08 11:55:27;;;;;;;10.10;5.43;;;8.60;1.00;;;;;;4979500;28;20509;-50
2023/03/08 11:58:12;;;;;;;11.70;6.40;;;8.40;1.00;;;;;;4978765;28;20458;-50
2023/03/08 12:00:42;;;;;;;8.83;5.13;;;8.70;1.00;;;;;;4979758;28;20446;-51
2023/03/08 12:03:18;;;;;;;10.37;5.90;;;8.90;1.00;;;;;;4979011;28;20450;-50
2023/03/08 12:06:00;;;;;;;7.67;5.30;;;8.80;1.00;;;;;;4979718;28;21016;-50
2023/03/08 12:08:29;;;;;;;8.50;5.20;;;8.90;1.00;;;;;;4979172;28;20465;-50
2023/03/08 12:11:18;;;;;;;10.60;5.70;;;8.80;1.00;;;;;;4978703;28;21008;-50
2023/03/08 12:13:47;;;;;;;8.27;4.43;;;8.80;1.00;;;;;;4973006;28;20855;-50
2023/03/08 12:16:25;;;;;;;8.13;4.60;;;9.80;1.00;;;;;;4981924;28;20442;-50
2023/03/08 12:19:39;;;;;;;10.33;5.70;;;10.90;1.00;;;;;;4982149;28;21036;-50
2023/03/08 12:22:32;;;;;;;7.80;5.57;;;11.70;1.00;;;;;;4910970;29;20892;-50
2023/03/08 12:25:04;;;;;;;13.13;6.87;;;12.20;1.00;;;;;;4911368;29;20535;-51
2023/03/08 12:27:39;;;;;;;11.30;5.33;;;12.50;1.00;;;;;;4965300;28;20540;-50
2023/03/08 12:30:21;;;;;;;11.73;6.20;;;12.50;1.00;;;;;;4978201;28;20445;-50
2023/03/08 12:32:48;;;;;;;7.27;5.63;;;11.70;1.00;;;;;;4978479;28;20488;-50
2023/03/08 12:35:19;;;;;;;8.60;6.50;;;10.90;1.00;;;;;;4977624;28;20476;-50
2023/03/08 12:37:55;;;;;;;8.40;6.90;;;10.10;1.00;;;;;;4981956;28;20808;-50
2023/03/08 12:40:44;;;;;;;10.20;7.00;;;10.00;1.00;;;;;;4979728;28;20440;-51
2023/03/08 12:43:18;;;;;;;9.60;7.10;;;10.50;1.00;;;;;;4982862;28;20442;-50
2023/03/08 12:46:05;;;;;;;8.03;6.57;;;11.60;1.00;;;;;;4978157;28;20524;-51
2023/03/08 12:48:36;;;;;;;10.73;7.47;;;12.50;1.00;;;;;;4977628;28;20444;-50
2023/03/08 12:51:10;;;;;;;10.20;7.30;;;12.80;1.00;;;;;;4983928;28;20452;-50
2023/03/08 12:53:40;;;;;;;16.50;8.73;;;12.70;1.00;;;;;;4978144;28;20466;-50
2023/03/08 12:56:08;;;;;;;10.73;7.80;;;12.40;1.00;;;;;;4977526;28;20440;-50
2023/03/08 12:58:48;;;;;;;11.00;8.70;;;11.90;1.00;;;;;;4977163;28;20485;-50
2023/03/08 13:01:31;;;;;;;9.23;7.10;;;11.20;1.00;;;;;;4978163;28;20458;-50